Time;durP1;ratioP1;P1;durP2;ratioP2;P2;SDS_P1;SDS_P2;PMS_P1;PMS_P2;Temp;Humidity;BMP_temperature;BMP_pressure;BME280_temperature;BME280_humidity;BME280_pressure;Samples;Min_cycle;Max_cycle;Signal;HPM_P1;HPM_P2
2023/12/11 00:00:47;;;;;;;13.60;9.57;;;;;;;0.92;100.00;98709.94;5107108;28;20196;-80
2023/12/11 00:03:14;;;;;;;12.67;9.23;;;;;;;0.91;100.00;98703.00;5102176;28;20215;-78
2023/12/11 00:05:41;;;;;;;12.07;8.63;;;;;;;0.78;100.00;98708.91;5090422;28;20219;-78
2023/12/11 00:08:12;;;;;;;13.53;9.53;;;;;;;0.60;100.00;98718.16;5092853;28;20200;-79
2023/12/11 00:10:38;;;;;;;11.50;8.60;;;;;;;0.51;100.00;98708.66;5093103;28;20196;-78
2023/12/11 00:13:08;;;;;;;10.17;8.10;;;;;;;0.31;100.00;98695.97;5097861;28;20212;-79
2023/12/11 00:15:39;;;;;;;11.73;8.27;;;;;;;0.12;100.00;98675.38;5102007;28;20226;-79
2023/12/11 00:18:06;;;;;;;14.63;9.33;;;;;;;-0.08;100.00;98663.66;5096581;28;20284;-78
2023/12/11 00:20:37;;;;;;;14.20;9.73;;;;;;;-0.18;100.00;98656.00;5095587;28;20252;-79
2023/12/11 00:23:06;;;;;;;14.30;9.77;;;;;;;-0.23;100.00;98636.44;5104506;28;20200;-79
2023/12/11 00:25:37;;;;;;;14.13;9.77;;;;;;;-0.22;100.00;98638.09;5095257;28;20188;-78
2023/12/11 00:28:05;;;;;;;16.17;9.77;;;;;;;-0.29;100.00;98632.72;5054499;28;20224;-78
2023/12/11 00:30:31;;;;;;;14.73;10.40;;;;;;;-0.29;100.00;98629.28;5093783;28;20729;-78
2023/12/11 00:32:58;;;;;;;14.60;9.80;;;;;;;-0.36;100.00;98626.50;5097885;28;20216;-79
2023/12/11 00:35:26;;;;;;;16.20;10.47;;;;;;;-0.38;100.00;98628.50;5101002;28;20673;-78
2023/12/11 00:37:53;;;;;;;11.70;9.37;;;;;;;-0.35;100.00;98624.69;5105866;28;20200;-79
2023/12/11 00:40:19;;;;;;;14.60;11.03;;;;;;;-0.33;100.00;98614.84;5106421;28;20192;-81
2023/12/11 00:42:49;;;;;;;14.90;11.23;;;;;;;-0.42;100.00;98615.88;5099466;28;20195;-79
2023/12/11 00:45:20;;;;;;;17.77;12.47;;;;;;;-0.45;100.00;98617.84;5090342;28;20291;-78
2023/12/11 00:47:51;;;;;;;16.87;12.90;;;;;;;-0.49;100.00;98613.13;5090235;28;20249;-79
2023/12/11 00:50:19;;;;;;;17.83;13.27;;;;;;;-0.49;100.00;98611.31;5106377;28;20191;-84
2023/12/11 00:52:46;;;;;;;18.17;13.43;;;;;;;-0.47;100.00;98611.94;5085533;28;20290;-79
2023/12/11 00:55:34;;;;;;;18.40;14.07;;;;;;;-0.44;100.00;98605.53;5089018;28;20208;-78
2023/12/11 00:58:07;;;;;;;17.93;13.33;;;;;;;-0.45;100.00;98595.97;5094783;28;20192;-79
2023/12/11 01:00:36;;;;;;;19.80;14.10;;;;;;;-0.49;100.00;98586.81;5087577;28;20245;-78
2023/12/11 01:03:03;;;;;;;19.70;13.60;;;;;;;-0.44;100.00;98595.00;5082939;28;20345;-79
2023/12/11 01:05:38;;;;;;;19.70;13.30;;;;;;;-0.42;100.00;98579.81;5099412;28;20197;-79
2023/12/11 01:08:05;;;;;;;18.73;13.93;;;;;;;-0.37;100.00;98576.69;5098849;28;20201;-78
2023/12/11 01:10:31;;;;;;;18.17;13.80;;;;;;;-0.36;100.00;98580.94;5093266;28;20204;-81
2023/12/11 01:13:03;;;;;;;19.17;14.13;;;;;;;-0.34;100.00;98576.34;5098850;28;20204;-81
2023/12/11 01:15:38;;;;;;;18.67;14.60;;;;;;;-0.32;100.00;98567.25;5058408;28;20603;-79
2023/12/11 01:18:06;;;;;;;22.37;14.23;;;;;;;-0.27;100.00;98569.38;5089248;28;20207;-79
2023/12/11 01:20:33;;;;;;;17.80;13.07;;;;;;;-0.23;100.00;98575.91;5099330;28;20248;-79
2023/12/11 01:23:00;;;;;;;19.97;14.10;;;;;;;-0.20;100.00;98543.97;5104505;28;20202;-79
2023/12/11 01:25:31;;;;;;;21.83;14.10;;;;;;;-0.19;100.00;98551.72;5101893;28;20211;-79
2023/12/11 01:28:00;;;;;;;17.70;13.90;;;;;;;-0.18;100.00;98568.31;5105928;28;20183;-79
2023/12/11 01:30:27;;;;;;;18.90;14.30;;;;;;;-0.20;100.00;98550.06;5092434;28;20199;-82
2023/12/11 01:32:57;;;;;;;20.27;14.53;;;;;;;-0.21;100.00;98547.59;5096253;28;20212;-79
2023/12/11 01:35:24;;;;;;;19.70;14.43;;;;;;;-0.19;100.00;98535.91;5099318;28;20241;-79
2023/12/11 01:37:51;;;;;;;18.50;14.60;;;;;;;-0.19;100.00;98537.72;5104642;28;20230;-77
2023/12/11 01:40:21;;;;;;;19.07;14.37;;;;;;;-0.19;100.00;98543.00;5103798;28;20309;-79
2023/12/11 01:42:51;;;;;;;18.67;14.27;;;;;;;-0.25;100.00;98549.78;5091850;28;20202;-80
2023/12/11 01:45:36;;;;;;;18.30;13.90;;;;;;;-0.34;100.00;98574.53;5100753;28;20192;-79
2023/12/11 01:48:03;;;;;;;20.20;14.97;;;;;;;-0.29;100.00;98584.53;5087994;28;20184;-79
2023/12/11 01:50:34;;;;;;;20.77;14.50;;;;;;;-0.25;100.00;98586.63;5092305;28;20199;-79
2023/12/11 01:53:01;;;;;;;21.23;15.17;;;;;;;-0.18;100.00;98568.31;5094795;28;20695;-78
2023/12/11 01:55:31;;;;;;;22.77;15.27;;;;;;;-0.09;100.00;98554.91;5085241;28;20661;-78
2023/12/11 01:57:58;;;;;;;20.67;15.73;;;;;;;-0.05;100.00;98548.28;5087969;28;20196;-79
2023/12/11 02:00:26;;;;;;;19.80;14.57;;;;;;;-0.02;100.00;98547.94;5092091;28;20283;-82
2023/12/11 02:02:53;;;;;;;18.97;14.67;;;;;;;0.01;100.00;98544.09;5079564;28;20188;-79
2023/12/11 02:05:20;;;;;;;19.63;14.47;;;;;;;0.05;100.00;98534.06;5090637;28;20196;-80
2023/12/11 02:07:46;;;;;;;18.27;14.43;;;;;;;0.06;100.00;98536.50;5094342;28;20203;-81
2023/12/11 02:10:14;;;;;;;23.13;15.20;;;;;;;0.08;100.00;98523.97;5101573;28;20249;-79
2023/12/11 02:12:41;;;;;;;21.13;15.93;;;;;;;0.08;100.00;98523.16;5091751;28;20226;-80
2023/12/11 02:15:10;;;;;;;19.93;15.70;;;;;;;0.08;100.00;98550.31;5097551;28;20752;-79
2023/12/11 02:17:39;;;;;;;20.70;15.23;;;;;;;0.11;100.00;98565.75;5098383;28;20283;-79
2023/12/11 02:20:06;;;;;;;22.43;16.10;;;;;;;0.15;100.00;98571.47;5102430;28;20202;-78
2023/12/11 02:22:33;;;;;;;21.97;15.70;;;;;;;0.16;100.00;98559.94;5100713;27;20200;-80
2023/12/11 02:25:07;;;;;;;21.37;15.13;;;;;;;0.18;100.00;98560.59;5095283;28;20192;-80
2023/12/11 02:27:34;;;;;;;18.93;14.20;;;;;;;0.17;100.00;98541.34;5098715;28;20188;-77
2023/12/11 02:30:01;;;;;;;18.63;14.90;;;;;;;0.19;100.00;98562.22;5099787;28;20192;-78
2023/12/11 02:32:27;;;;;;;19.60;14.97;;;;;;;0.17;100.00;98564.22;5102090;27;20183;-78
2023/12/11 02:34:57;;;;;;;20.97;14.90;;;;;;;0.18;100.00;98558.78;5096988;28;20297;-79
2023/12/11 02:37:24;;;;;;;19.43;14.23;;;;;;;0.21;100.00;98563.69;5092293;28;20199;-79
2023/12/11 02:39:50;;;;;;;19.40;14.13;;;;;;;0.24;100.00;98565.13;5099582;28;20203;-77
2023/12/11 02:42:20;;;;;;;19.13;14.60;;;;;;;0.29;100.00;98560.13;5099240;28;20191;-79
2023/12/11 02:44:49;;;;;;;18.77;14.77;;;;;;;0.29;100.00;98547.78;5091270;28;20196;-78
2023/12/11 02:47:23;;;;;;;20.30;15.00;;;;;;;0.23;100.00;98539.81;5097543;28;20191;-77
2023/12/11 02:49:53;;;;;;;18.83;14.23;;;;;;;0.24;100.00;98581.75;5092066;28;20241;-79
2023/12/11 02:52:23;;;;;;;19.60;15.30;;;;;;;0.29;100.00;98584.66;5094218;28;20224;-81
2023/12/11 02:54:52;;;;;;;21.00;14.77;;;;;;;0.33;100.00;98571.94;5090427;28;20212;-81
2023/12/11 02:57:19;;;;;;;19.47;14.43;;;;;;;0.33;100.00;98591.22;5096338;28;20245;-78
2023/12/11 02:59:46;;;;;;;21.40;14.93;;;;;;;0.37;100.00;98581.16;5097763;28;20192;-82
2023/12/11 03:02:18;;;;;;;19.30;14.77;;;;;;;0.29;100.00;98578.56;5094310;28;20202;-78
2023/12/11 03:04:47;;;;;;;19.50;14.80;;;;;;;0.22;100.00;98611.91;5069851;28;20211;-80
2023/12/11 03:07:16;;;;;;;20.53;15.47;;;;;;;0.28;100.00;98540.88;5096720;28;20199;-78
2023/12/11 03:09:57;;;;;;;19.20;14.97;;;;;;;0.32;100.00;98665.19;5076719;28;20212;-77
2023/12/11 03:12:28;;;;;;;20.40;15.90;;;;;;;0.37;100.00;98649.66;5091270;28;20241;-78
2023/12/11 03:14:59;;;;;;;21.00;16.30;;;;;;;0.34;100.00;98676.34;5104920;28;20268;-78
2023/12/11 03:17:26;;;;;;;23.93;16.37;;;;;;;0.35;100.00;98714.88;5108166;28;20195;-78
2023/12/11 03:19:53;;;;;;;20.77;15.73;;;;;;;0.31;100.00;98700.44;5089157;28;20250;-78
2023/12/11 03:22:20;;;;;;;21.20;16.57;;;;;;;0.31;100.00;98682.81;5081851;28;20212;-77
2023/12/11 03:24:48;;;;;;;21.33;16.27;;;;;;;0.28;100.00;98677.88;5101390;28;20188;-78
2023/12/11 03:27:16;;;;;;;21.30;16.13;;;;;;;0.27;100.00;98676.25;5089741;28;20668;-77
2023/12/11 03:29:49;;;;;;;23.00;16.53;;;;;;;0.23;100.00;98672.34;5084520;28;20200;-79
2023/12/11 03:32:22;;;;;;;22.10;16.17;;;;;;;0.16;100.00;98663.50;5076011;28;20680;-79
2023/12/11 03:34:51;;;;;;;20.07;16.07;;;;;;;0.05;100.00;98650.72;5088903;28;20215;-80
2023/12/11 03:37:23;;;;;;;23.50;16.87;;;;;;;0.11;100.00;98665.84;5110514;28;20233;-78
2023/12/11 03:39:55;;;;;;;23.30;17.27;;;;;;;0.09;100.00;98661.75;5079697;28;20192;-80
2023/12/11 03:42:24;;;;;;;21.53;16.40;;;;;;;-0.13;100.00;98655.47;5088621;28;20215;-80
2023/12/11 03:44:54;;;;;;;23.43;17.03;;;;;;;-0.19;100.00;98672.00;5099702;28;20222;-79
2023/12/11 03:47:24;;;;;;;23.73;17.27;;;;;;;-0.19;100.00;98682.53;5087541;28;20215;-80
2023/12/11 03:49:51;;;;;;;24.97;17.83;;;;;;;-0.24;100.00;98680.41;5087846;28;20219;-78
2023/12/11 03:52:22;;;;;;;25.00;17.80;;;;;;;-0.16;100.00;98682.97;5092381;28;20184;-79
2023/12/11 03:54:49;;;;;;;22.47;17.43;;;;;;;-0.14;100.00;98688.88;5092841;28;20232;-80
2023/12/11 03:57:16;;;;;;;26.00;19.73;;;;;;;-0.13;100.00;98689.69;5099874;28;20566;-80
2023/12/11 03:59:43;;;;;;;24.07;17.90;;;;;;;-0.22;100.00;98694.19;5095584;28;20192;-78
2023/12/11 04:02:10;;;;;;;23.93;18.43;;;;;;;-0.31;100.00;98692.59;5098230;28;20192;-78
2023/12/11 04:04:39;;;;;;;24.57;18.37;;;;;;;-0.27;100.00;98714.97;5097466;28;20240;-82
2023/12/11 04:07:06;;;;;;;25.13;18.70;;;;;;;-0.22;100.00;98717.91;5094589;28;20188;-79
2023/12/11 04:09:36;;;;;;;26.87;18.77;;;;;;;-0.11;100.00;98709.63;5092740;28;20215;-79
2023/12/11 04:12:05;;;;;;;24.03;19.50;;;;;;;-0.08;100.00;98718.97;5096757;28;20216;-77
2023/12/11 04:14:34;;;;;;;23.90;19.17;;;;;;;-0.03;100.00;98732.44;5092638;28;20722;-78
2023/12/11 04:17:03;;;;;;;24.90;18.53;;;;;;;0.03;100.00;98723.03;5092741;28;20203;-80
2023/12/11 04:19:32;;;;;;;23.30;17.63;;;;;;;0.07;100.00;98709.31;5101362;28;20218;-80
2023/12/11 04:22:05;;;;;;;24.67;18.40;;;;;;;0.07;100.00;98695.34;5093853;28;20713;-80
2023/12/11 04:24:37;;;;;;;24.43;18.53;;;;;;;0.02;100.00;98684.50;5096810;28;20270;-80
2023/12/11 04:27:04;;;;;;;23.13;17.93;;;;;;;-0.01;100.00;98689.16;5092133;28;20668;-80
2023/12/11 04:29:36;;;;;;;24.73;19.10;;;;;;;-0.07;100.00;98679.31;5094851;28;20211;-80
2023/12/11 04:32:06;;;;;;;21.83;17.70;;;;;;;-0.08;100.00;98667.13;5104381;28;20191;-79
2023/12/11 04:34:33;;;;;;;21.00;16.60;;;;;;;-0.11;100.00;98667.47;5112093;28;20706;-79
2023/12/11 04:37:00;;;;;;;23.33;16.67;;;;;;;-0.15;100.00;98676.72;5095371;28;20195;-81
2023/12/11 04:39:36;;;;;;;20.03;15.97;;;;;;;-0.20;100.00;98676.44;5112837;28;20384;-80
2023/12/11 04:42:03;;;;;;;21.83;17.00;;;;;;;-0.26;100.00;98679.75;5112481;28;20218;-79
2023/12/11 04:44:38;;;;;;;21.87;16.73;;;;;;;-0.22;100.00;98640.72;5111590;28;20190;-79
2023/12/11 04:47:05;;;;;;;22.80;17.90;;;;;;;-0.19;100.00;98664.09;5089935;28;20176;-82
2023/12/11 04:49:32;;;;;;;19.37;16.77;;;;;;;-0.23;100.00;98670.66;5107901;28;20203;-80
2023/12/11 04:51:59;;;;;;;21.27;16.57;;;;;;;-0.20;100.00;98679.06;5090948;28;20212;-80
2023/12/11 04:54:26;;;;;;;19.00;16.43;;;;;;;-0.18;100.00;98666.53;5096104;28;20225;-79
2023/12/11 04:56:54;;;;;;;21.30;17.33;;;;;;;-0.15;100.00;98687.25;5104634;28;20191;-80
2023/12/11 04:59:26;;;;;;;21.67;16.87;;;;;;;-0.09;100.00;98660.22;5108525;28;20256;-80
2023/12/11 05:01:53;;;;;;;21.17;17.60;;;;;;;-0.12;100.00;98636.88;5108034;28;20195;-79
2023/12/11 05:04:20;;;;;;;21.50;17.40;;;;;;;-0.08;100.00;98626.81;5115648;28;20203;-80
2023/12/11 05:06:47;;;;;;;22.50;17.40;;;;;;;-0.09;100.00;98636.50;5102484;28;20188;-80
2023/12/11 05:09:15;;;;;;;20.90;16.97;;;;;;;-0.11;100.00;98653.50;5104874;28;20194;-81
2023/12/11 05:11:42;;;;;;;21.83;17.97;;;;;;;-0.07;100.00;98695.09;5094096;28;20196;-79
2023/12/11 05:14:09;;;;;;;27.17;19.07;;;;;;;-0.04;100.00;98686.84;5093639;28;20223;-80
2023/12/11 05:16:36;;;;;;;24.63;19.40;;;;;;;-0.02;100.00;98689.31;5091814;28;20196;-79
2023/12/11 05:19:05;;;;;;;22.00;18.37;;;;;;;-0.03;100.00;98682.41;5097232;28;20294;-80
2023/12/11 05:21:35;;;;;;;23.57;18.33;;;;;;;0.00;100.00;98679.44;5094576;28;20200;-80
2023/12/11 05:24:02;;;;;;;22.00;17.70;;;;;;;0.03;100.00;98689.59;5096198;28;20557;-81
2023/12/11 05:26:29;;;;;;;22.70;18.63;;;;;;;0.09;100.00;98703.91;5095187;28;20192;-80
2023/12/11 05:28:55;;;;;;;23.23;18.37;;;;;;;0.17;100.00;98735.44;5095688;28;20196;-82
2023/12/11 05:31:22;;;;;;;24.03;18.13;;;;;;;0.22;100.00;98717.28;5089617;28;20253;-80
2023/12/11 05:33:49;;;;;;;25.23;18.20;;;;;;;0.17;100.00;98767.88;5100875;28;20660;-80
2023/12/11 05:36:16;;;;;;;22.13;17.50;;;;;;;0.27;100.00;98763.19;5084525;28;20197;-80
2023/12/11 05:38:43;;;;;;;21.57;17.90;;;;;;;0.28;100.00;98780.63;5102455;28;20196;-81
2023/12/11 05:41:13;;;;;;;25.40;17.77;;;;;;;0.27;100.00;98762.38;5099493;28;20191;-80
2023/12/11 05:43:40;;;;;;;23.73;17.80;;;;;;;0.30;100.00;98754.09;5096779;28;20196;-79
2023/12/11 05:46:25;;;;;;;24.93;17.50;;;;;;;0.29;100.00;98755.94;5088467;28;20192;-80
2023/12/11 05:48:52;;;;;;;23.47;17.30;;;;;;;0.30;100.00;98740.94;5109597;28;20191;-79
2023/12/11 05:51:21;;;;;;;23.13;18.10;;;;;;;0.34;100.00;98732.50;5076411;28;20187;-81
2023/12/11 05:53:49;;;;;;;23.30;17.60;;;;;;;0.34;100.00;98729.88;5101712;28;20238;-80
2023/12/11 05:56:16;;;;;;;20.60;16.77;;;;;;;0.37;100.00;98720.81;5099815;28;20199;-80
2023/12/11 05:58:43;;;;;;;22.80;17.03;;;;;;;0.36;100.00;98720.00;5107085;28;20264;-80
2023/12/11 06:01:12;;;;;;;21.30;16.67;;;;;;;0.35;100.00;98736.78;5109176;28;20275;-80
2023/12/11 06:03:44;;;;;;;20.77;15.63;;;;;;;0.34;100.00;98742.22;5105752;28;20288;-79
2023/12/11 06:06:15;;;;;;;21.90;16.83;;;;;;;0.35;100.00;98742.06;5105643;28;20259;-80
2023/12/11 06:08:47;;;;;;;23.00;16.93;;;;;;;0.39;100.00;98737.25;5106643;28;20195;-81
2023/12/11 06:11:20;;;;;;;20.13;16.33;;;;;;;0.44;100.00;98737.53;5102609;28;20192;-80
2023/12/11 06:13:49;;;;;;;24.47;16.80;;;;;;;0.47;100.00;98733.75;5105896;28;20199;-81
2023/12/11 06:16:16;;;;;;;20.63;16.33;;;;;;;0.49;100.00;98737.00;5100346;28;20192;-79
2023/12/11 06:18:43;;;;;;;21.90;17.57;;;;;;;0.50;100.00;98720.19;5104676;28;20211;-80
2023/12/11 06:21:19;;;;;;;20.70;16.13;;;;;;;0.53;100.00;98699.56;5103840;28;20192;-80
2023/12/11 06:23:47;;;;;;;20.53;16.47;;;;;;;0.56;100.00;98701.06;5101454;28;20204;-79
2023/12/11 06:26:31;;;;;;;21.87;16.90;;;;;;;0.61;100.00;98696.03;5099038;28;20212;-79
2023/12/11 06:28:59;;;;;;;20.30;16.03;;;;;;;0.61;100.00;98673.13;5098726;27;20192;-81
2023/12/11 06:31:30;;;;;;;19.97;15.87;;;;;;;0.57;100.00;98657.84;5087184;28;20208;-80
2023/12/11 06:33:57;;;;;;;18.83;16.33;;;;;;;0.53;100.00;98640.78;5095856;28;20192;-80
2023/12/11 06:36:28;;;;;;;18.77;16.63;;;;;;;0.48;100.00;98633.41;5095995;28;20675;-80
2023/12/11 06:39:03;;;;;;;23.77;17.37;;;;;;;0.48;100.00;98649.22;5090501;28;20197;-80
2023/12/11 06:41:30;;;;;;;22.97;17.80;;;;;;;0.46;100.00;98660.94;5087666;28;20211;-81
2023/12/11 06:43:59;;;;;;;23.53;17.60;;;;;;;0.44;100.00;98709.38;5090753;28;20204;-82
2023/12/11 06:46:29;;;;;;;22.37;18.73;;;;;;;0.42;100.00;98719.25;5076547;28;20212;-79
2023/12/11 06:48:56;;;;;;;23.30;18.40;;;;;;;0.43;100.00;98734.09;5086465;28;20694;-81
2023/12/11 06:51:30;;;;;;;19.67;16.77;;;;;;;0.40;100.00;98728.34;5085286;28;20209;-77
2023/12/11 06:54:00;;;;;;;20.77;16.80;;;;;;;0.39;100.00;98732.81;5092407;28;20224;-79
2023/12/11 06:56:31;;;;;;;21.73;17.30;;;;;;;0.39;100.00;98730.16;5092389;28;20192;-77
2023/12/11 06:59:06;;;;;;;20.63;17.17;;;;;;;0.37;100.00;98723.44;5104006;28;20188;-76
2023/12/11 07:01:34;;;;;;;21.33;19.03;;;;;;;0.32;100.00;98721.34;5111159;28;20187;-77
2023/12/11 07:04:03;;;;;;;19.37;16.53;;;;;;;0.26;100.00;98710.69;5101035;28;20217;-77
2023/12/11 07:06:35;;;;;;;18.80;15.87;;;;;;;0.29;100.00;98691.88;5105754;28;20192;-78
2023/12/11 07:09:03;;;;;;;20.37;16.17;;;;;;;0.34;100.00;98684.25;5101568;28;20216;-77
2023/12/11 07:11:29;;;;;;;18.60;16.13;;;;;;;0.36;100.00;98675.19;5087024;28;20249;-78
2023/12/11 07:13:58;;;;;;;20.13;16.67;;;;;;;0.41;100.00;98672.84;5098197;28;20246;-77
2023/12/11 07:16:25;;;;;;;21.27;16.83;;;;;;;0.51;100.00;98662.06;5097722;28;20268;-79
2023/12/11 07:18:52;;;;;;;21.33;16.97;;;;;;;0.58;100.00;98657.69;5095467;28;20191;-78
2023/12/11 07:21:22;;;;;;;23.03;18.43;;;;;;;0.67;100.00;98666.34;5091175;28;20198;-77
2023/12/11 07:23:50;;;;;;;21.70;17.90;;;;;;;0.71;100.00;98663.16;5093689;28;20192;-78
2023/12/11 07:26:18;;;;;;;29.57;21.87;;;;;;;0.78;100.00;98656.19;5092388;28;20218;-78
2023/12/11 07:28:50;;;;;;;29.63;22.23;;;;;;;0.85;100.00;98650.97;5087260;28;20217;-78
2023/12/11 07:31:21;;;;;;;21.97;17.30;;;;;;;0.93;100.00;98643.00;5101110;28;20291;-77
2023/12/11 07:33:48;;;;;;;20.93;15.53;;;;;;;0.96;100.00;98644.44;5102586;28;20196;-77
2023/12/11 07:36:15;;;;;;;20.00;16.13;;;;;;;1.02;100.00;98635.81;5100411;28;20224;-77
2023/12/11 07:38:44;;;;;;;20.60;15.43;;;;;;;1.06;100.00;98640.53;5092788;28;20187;-77
2023/12/11 07:41:11;;;;;;;23.37;16.73;;;;;;;1.13;100.00;98640.59;5096236;28;20188;-77
2023/12/11 07:43:38;;;;;;;18.63;16.10;;;;;;;1.22;100.00;98632.41;5090647;28;20196;-79
2023/12/11 07:46:18;;;;;;;19.97;15.93;;;;;;;1.35;100.00;98630.94;5087724;28;20192;-78
2023/12/11 07:48:46;;;;;;;21.13;15.13;;;;;;;1.45;100.00;98637.53;5087475;28;20196;-77
2023/12/11 07:51:18;;;;;;;18.63;15.33;;;;;;;1.61;100.00;98655.00;5092052;28;20265;-78
2023/12/11 07:53:46;;;;;;;19.00;15.80;;;;;;;1.67;100.00;98660.38;5089737;28;20705;-76
2023/12/11 07:56:29;;;;;;;18.73;15.90;;;;;;;1.66;100.00;98669.28;5085003;28;20227;-76
2023/12/11 07:58:59;;;;;;;18.67;16.03;;;;;;;1.79;100.00;98676.53;5090351;28;20271;-76
2023/12/11 08:01:31;;;;;;;20.47;16.27;;;;;;;1.52;100.00;98679.88;5087930;28;20207;-77
2023/12/11 08:03:58;;;;;;;19.30;15.90;;;;;;;1.18;100.00;98678.63;5092255;28;20280;-77
2023/12/11 08:06:25;;;;;;;19.77;15.70;;;;;;;1.05;100.00;98667.91;5095893;28;20279;-78
2023/12/11 08:08:53;;;;;;;20.20;16.50;;;;;;;1.12;100.00;98671.44;5077043;28;20195;-78
2023/12/11 08:11:22;;;;;;;20.87;17.00;;;;;;;1.20;100.00;98679.28;5091880;28;20192;-77
2023/12/11 08:13:52;;;;;;;20.03;16.53;;;;;;;1.36;100.00;98677.44;5092321;28;20193;-80
2023/12/11 08:16:19;;;;;;;20.40;17.17;;;;;;;1.49;100.00;98674.97;5093356;28;20216;-79
2023/12/11 08:18:48;;;;;;;19.90;17.63;;;;;;;1.52;100.00;98671.94;5098077;28;20241;-78
2023/12/11 08:21:18;;;;;;;22.70;17.83;;;;;;;1.65;100.00;98667.63;5089893;28;20255;-76
2023/12/11 08:23:46;;;;;;;22.00;17.50;;;;;;;1.80;100.00;98675.53;5093242;28;20554;-77
2023/12/11 08:26:20;;;;;;;20.40;17.60;;;;;;;1.97;100.00;98662.88;5084173;28;20193;-79
2023/12/11 08:28:50;;;;;;;19.90;17.27;;;;;;;2.03;100.00;98662.16;5079043;28;20219;-77
2023/12/11 08:31:17;;;;;;;19.40;16.80;;;;;;;2.08;100.00;98657.94;5083604;28;20193;-78
2023/12/11 08:33:44;;;;;;;19.53;15.80;;;;;;;2.21;100.00;98654.59;5080517;28;20196;-76
2023/12/11 08:36:15;;;;;;;20.03;17.13;;;;;;;2.18;100.00;98654.97;5087500;28;20216;-77
2023/12/11 08:38:42;;;;;;;18.77;16.40;;;;;;;2.06;100.00;98664.41;5089331;28;20188;-76
2023/12/11 08:41:18;;;;;;;19.43;16.53;;;;;;;2.21;100.00;98667.81;5080694;28;20274;-75
2023/12/11 08:43:46;;;;;;;25.93;19.23;;;;;;;2.33;100.00;98660.19;5111094;28;20217;-76
2023/12/11 08:46:16;;;;;;;22.53;17.90;;;;;;;2.28;100.00;98660.75;5101655;28;21009;-79
2023/12/11 08:48:45;;;;;;;17.40;15.60;;;;;;;2.20;100.00;98664.34;5096232;28;20192;-77
2023/12/11 08:51:18;;;;;;;24.90;21.00;;;;;;;2.30;100.00;98666.66;5086972;28;20191;-77
2023/12/11 08:53:45;;;;;;;19.33;16.20;;;;;;;2.53;100.00;98677.84;5108846;28;20231;-77
2023/12/11 08:56:23;;;;;;;18.30;16.03;;;;;;;2.59;100.00;98692.13;5085158;28;20220;-76
2023/12/11 08:58:58;;;;;;;17.97;15.70;;;;;;;2.52;100.00;98693.91;5106083;28;20218;-76
2023/12/11 09:01:25;;;;;;;18.23;15.87;;;;;;;2.69;100.00;98694.44;5109464;28;20199;-75
2023/12/11 09:03:51;;;;;;;17.73;15.77;;;;;;;2.89;100.00;98690.91;5105213;28;20214;-77
2023/12/11 09:06:20;;;;;;;17.90;15.70;;;;;;;2.96;100.00;98691.78;5102765;28;20191;-77
2023/12/11 09:08:50;;;;;;;17.73;15.80;;;;;;;2.90;100.00;98697.84;5104768;28;20298;-78
2023/12/11 09:11:21;;;;;;;20.57;15.77;;;;;;;2.93;100.00;98681.59;5089905;28;20195;-76
2023/12/11 09:13:51;;;;;;;18.73;15.63;;;;;;;3.17;100.00;98677.69;5111945;28;20215;-77
2023/12/11 09:16:19;;;;;;;19.87;15.57;;;;;;;3.32;100.00;98673.06;5108777;28;20294;-76
2023/12/11 09:18:49;;;;;;;17.73;15.40;;;;;;;3.38;100.00;98672.28;5102049;28;20214;-77
2023/12/11 09:21:17;;;;;;;18.00;15.47;;;;;;;3.57;100.00;98657.50;5084764;28;20188;-79
2023/12/11 09:23:45;;;;;;;19.70;16.27;;;;;;;3.82;100.00;98660.44;5081301;28;20222;-77
2023/12/11 09:26:16;;;;;;;17.23;15.27;;;;;;;3.94;100.00;98656.16;5086036;28;20199;-79
2023/12/11 09:28:43;;;;;;;18.87;15.07;;;;;;;4.01;100.00;98645.59;5079902;28;20197;-77
2023/12/11 09:31:24;;;;;;;17.57;14.47;;;;;;;4.17;100.00;98661.09;5083676;28;20192;-78
2023/12/11 09:33:51;;;;;;;17.10;15.27;;;;;;;4.14;100.00;98664.97;5092515;28;20192;-77
2023/12/11 09:36:21;;;;;;;19.43;15.40;;;;;;;4.15;100.00;98657.84;5089433;28;20217;-77
2023/12/11 09:38:47;;;;;;;16.33;13.30;;;;;;;4.18;100.00;98645.00;5089826;28;20664;-78
2023/12/11 09:41:14;;;;;;;15.13;13.53;;;;;;;4.24;100.00;98636.25;5087827;28;20188;-77
2023/12/11 09:43:42;;;;;;;15.20;13.23;;;;;;;4.31;100.00;98639.69;5110808;28;20239;-77
2023/12/11 09:46:12;;;;;;;14.73;13.17;;;;;;;4.35;100.00;98648.88;5113840;28;20670;-78
2023/12/11 09:48:42;;;;;;;16.20;13.37;;;;;;;4.39;100.00;98636.00;5108509;28;20226;-77
2023/12/11 09:51:13;;;;;;;16.93;14.70;;;;;;;4.21;100.00;98631.31;5093089;28;20189;-78
2023/12/11 09:53:53;;;;;;;17.87;15.37;;;;;;;4.21;100.00;98625.19;5100892;28;20226;-77
2023/12/11 09:56:20;;;;;;;17.30;15.20;;;;;;;4.27;100.00;98627.06;5097212;28;20211;-77
2023/12/11 09:58:48;;;;;;;17.93;15.40;;;;;;;4.39;100.00;98614.81;5094783;28;20268;-77
2023/12/11 10:01:17;;;;;;;16.60;14.87;;;;;;;4.55;100.00;98608.28;5114776;28;20210;-76
2023/12/11 10:03:46;;;;;;;18.40;15.17;;;;;;;4.60;100.00;98593.38;5111346;28;20268;-78
2023/12/11 10:06:13;;;;;;;15.67;13.80;;;;;;;4.57;100.00;98592.97;5097856;28;20208;-78
2023/12/11 10:08:44;;;;;;;16.63;14.83;;;;;;;4.42;100.00;98585.25;5102198;28;20191;-77
2023/12/11 10:11:18;;;;;;;17.57;15.67;;;;;;;4.29;100.00;98590.56;5105610;28;20203;-78
2023/12/11 10:13:48;;;;;;;17.00;15.07;;;;;;;4.12;100.00;98602.56;5113346;28;20457;-78
2023/12/11 10:16:28;;;;;;;17.27;15.47;;;;;;;4.20;100.00;98613.78;5100774;28;20227;-78
2023/12/11 10:18:59;;;;;;;19.50;15.90;;;;;;;4.24;100.00;98607.06;5090149;28;20739;-78
2023/12/11 10:21:40;;;;;;;17.80;14.10;;;;;;;4.35;100.00;98577.28;5084794;28;20277;-78
2023/12/11 10:24:14;;;;;;;16.83;14.13;;;;;;;4.33;100.00;98567.91;5089440;28;20277;-78
2023/12/11 10:26:46;;;;;;;16.93;13.83;;;;;;;4.23;100.00;98557.72;5090895;28;20694;-77
2023/12/11 10:29:18;;;;;;;16.20;13.27;;;;;;;4.39;100.00;98572.38;5111681;28;20311;-78
2023/12/11 10:31:45;;;;;;;19.50;14.80;;;;;;;4.42;100.00;98564.03;5110373;28;20192;-76
2023/12/11 10:34:17;;;;;;;14.17;12.77;;;;;;;4.42;100.00;98567.50;5106808;28;20188;-79
2023/12/11 10:36:52;;;;;;;15.83;14.13;;;;;;;4.46;100.00;98569.72;5095651;28;20276;-77
2023/12/11 10:39:22;;;;;;;15.63;13.50;;;;;;;4.70;100.00;98564.59;5108693;28;20260;-77
2023/12/11 10:41:52;;;;;;;16.87;14.23;;;;;;;5.10;100.00;98569.75;5109516;28;20268;-77
2023/12/11 10:44:24;;;;;;;16.37;14.53;;;;;;;5.51;100.00;98564.03;5105401;28;20675;-78
2023/12/11 10:47:11;;;;;;;14.57;12.53;;;;;;;5.62;100.00;98568.69;5101730;28;20200;-77
2023/12/11 10:49:41;;;;;;;14.77;12.90;;;;;;;5.65;100.00;98569.06;5099643;28;20188;-76
2023/12/11 10:52:12;;;;;;;13.97;12.57;;;;;;;5.86;100.00;98559.97;5100928;28;20276;-78
2023/12/11 10:54:45;;;;;;;13.20;11.83;;;;;;;5.98;100.00;98565.41;5104136;28;20283;-76
2023/12/11 10:57:16;;;;;;;14.47;12.10;;;;;;;6.06;100.00;98559.84;5101490;28;20215;-80
2023/12/11 10:59:45;;;;;;;12.60;11.30;;;;;;;6.04;100.00;98559.25;5098960;28;20656;-76
2023/12/11 11:02:16;;;;;;;13.50;12.10;;;;;;;6.15;100.00;98547.91;5103421;28;20194;-77
2023/12/11 11:04:45;;;;;;;13.50;12.10;;;;;;;6.40;100.00;98556.69;5102467;28;20220;-78
2023/12/11 11:07:20;;;;;;;13.47;12.10;;;;;;;6.72;100.00;98561.94;5103483;28;20294;-79
2023/12/11 11:09:58;;;;;;;14.13;11.40;;;;;;;6.87;100.00;98579.16;5093223;28;20188;-77
2023/12/11 11:12:42;;;;;;;13.10;11.80;;;;;;;6.92;100.00;98554.53;5104983;28;20276;-79
2023/12/11 11:15:12;;;;;;;12.70;11.40;;;;;;;6.80;100.00;98553.63;5096758;28;20216;-77
2023/12/11 11:18:02;;;;;;;13.80;12.10;;;;;;;6.49;100.00;98549.22;5095509;28;20254;-77
2023/12/11 11:20:36;;;;;;;13.33;12.03;;;;;;;6.29;100.00;98552.09;5097269;28;20193;-77
2023/12/11 11:23:16;;;;;;;12.23;10.93;;;;;;;6.14;100.00;98554.25;5097673;28;20227;-77
2023/12/11 11:25:53;;;;;;;13.73;12.40;;;;;;;6.09;100.00;98548.78;5095949;28;20248;-76